sensor_id;sensor_type;location;lat;lon;timestamp;temperature;humidity
60309;DHT22;50313;52.894;6.492;2023-10-31T00:01:50;10.80;99.90
60309;DHT22;50313;52.894;6.492;2023-10-31T00:04:16;10.70;99.90
60309;DHT22;50313;52.894;6.492;2023-10-31T00:06:42;10.70;99.90
60309;DHT22;50313;52.894;6.492;2023-10-31T00:09:08;10.70;99.90
60309;DHT22;50313;52.894;6.492;2023-10-31T00:11:34;10.70;99.90
60309;DHT22;50313;52.894;6.492;2023-10-31T00:13:59;10.70;99.90
60309;DHT22;50313;52.894;6.492;2023-10-31T00:16:25;10.70;99.90
60309;DHT22;50313;52.894;6.492;2023-10-31T00:18:51;10.60;99.90
60309;DHT22;50313;52.894;6.492;2023-10-31T00:21:18;10.60;99.90
60309;DHT22;50313;52.894;6.492;2023-10-31T00:23:46;10.60;99.90
60309;DHT22;50313;52.894;6.492;2023-10-31T00:26:12;10.60;99.90
60309;DHT22;50313;52.894;6.492;2023-10-31T00:28:37;10.60;99.90
60309;DHT22;50313;52.894;6.492;2023-10-31T00:31:03;10.50;99.90
60309;DHT22;50313;52.894;6.492;2023-10-31T00:33:30;10.50;99.90
60309;DHT22;50313;52.894;6.492;2023-10-31T00:35:56;10.50;99.90
60309;DHT22;50313;52.894;6.492;2023-10-31T00:38:22;10.50;99.90
60309;DHT22;50313;52.894;6.492;2023-10-31T00:40:47;10.40;99.90
60309;DHT22;50313;52.894;6.492;2023-10-31T00:43:13;10.40;99.90
60309;DHT22;50313;52.894;6.492;2023-10-31T00:45:39;10.40;99.90
60309;DHT22;50313;52.894;6.492;2023-10-31T00:48:05;10.30;99.90
60309;DHT22;50313;52.894;6.492;2023-10-31T00:50:30;10.30;99.90
60309;DHT22;50313;52.894;6.492;2023-10-31T00:52:56;10.20;99.90
60309;DHT22;50313;52.894;6.492;2023-10-31T00:55:22;10.20;99.90
60309;DHT22;50313;52.894;6.492;2023-10-31T00:57:47;10.20;99.90
60309;DHT22;50313;52.894;6.492;2023-10-31T01:00:13;10.20;99.90
60309;DHT22;50313;52.894;6.492;2023-10-31T01:02:39;10.20;99.90
60309;DHT22;50313;52.894;6.492;2023-10-31T01:05:05;10.20;99.90
60309;DHT22;50313;52.894;6.492;2023-10-31T01:07:31;10.10;99.90
60309;DHT22;50313;52.894;6.492;2023-10-31T01:09:57;10.00;99.90
60309;DHT22;50313;52.894;6.492;2023-10-31T01:12:22;10.00;99.90
60309;DHT22;50313;52.894;6.492;2023-10-31T01:14:48;10.00;99.90
60309;DHT22;50313;52.894;6.492;2023-10-31T01:17:14;9.90;99.90
60309;DHT22;50313;52.894;6.492;2023-10-31T01:19:40;9.80;99.90
60309;DHT22;50313;52.894;6.492;2023-10-31T01:22:05;9.80;99.90
60309;DHT22;50313;52.894;6.492;2023-10-31T01:24:32;9.70;99.90
60309;DHT22;50313;52.894;6.492;2023-10-31T01:26:58;9.60;99.90
60309;DHT22;50313;52.894;6.492;2023-10-31T01:29:24;9.60;99.90
60309;DHT22;50313;52.894;6.492;2023-10-31T01:31:49;9.50;99.90
60309;DHT22;50313;52.894;6.492;2023-10-31T01:34:15;9.50;99.90
60309;DHT22;50313;52.894;6.492;2023-10-31T01:36:41;9.50;99.90
60309;DHT22;50313;52.894;6.492;2023-10-31T01:39:06;9.50;99.90
60309;DHT22;50313;52.894;6.492;2023-10-31T01:41:33;9.50;99.90
60309;DHT22;50313;52.894;6.492;2023-10-31T01:43:59;9.50;99.90
60309;DHT22;50313;52.894;6.492;2023-10-31T01:46:24;9.50;99.90
60309;DHT22;50313;52.894;6.492;2023-10-31T01:48:50;9.50;99.90
60309;DHT22;50313;52.894;6.492;2023-10-31T01:51:16;9.50;99.90
60309;DHT22;50313;52.894;6.492;2023-10-31T01:53:57;9.50;99.90
60309;DHT22;50313;52.894;6.492;2023-10-31T01:56:24;9.60;99.90
60309;DHT22;50313;52.894;6.492;2023-10-31T01:58:50;9.50;99.90
60309;DHT22;50313;52.894;6.492;2023-10-31T02:01:18;9.60;99.90
60309;DHT22;50313;52.894;6.492;2023-10-31T02:03:44;9.60;99.90
60309;DHT22;50313;52.894;6.492;2023-10-31T02:06:09;9.60;99.90
60309;DHT22;50313;52.894;6.492;2023-10-31T02:08:35;9.60;99.90
60309;DHT22;50313;52.894;6.492;2023-10-31T02:11:01;9.60;99.90
60309;DHT22;50313;52.894;6.492;2023-10-31T02:13:27;9.60;99.90
60309;DHT22;50313;52.894;6.492;2023-10-31T02:15:52;9.60;99.90
60309;DHT22;50313;52.894;6.492;2023-10-31T02:18:18;9.50;99.90
60309;DHT22;50313;52.894;6.492;2023-10-31T02:20:44;9.50;99.90
60309;DHT22;50313;52.894;6.492;2023-10-31T02:23:10;9.50;99.90
60309;DHT22;50313;52.894;6.492;2023-10-31T02:25:40;9.50;99.90
60309;DHT22;50313;52.894;6.492;2023-10-31T02:28:05;9.40;99.90
60309;DHT22;50313;52.894;6.492;2023-10-31T02:30:31;9.50;99.90
60309;DHT22;50313;52.894;6.492;2023-10-31T02:32:57;9.50;99.90
60309;DHT22;50313;52.894;6.492;2023-10-31T02:35:23;9.50;99.90
60309;DHT22;50313;52.894;6.492;2023-10-31T02:37:49;9.50;99.90
60309;DHT22;50313;52.894;6.492;2023-10-31T02:40:15;9.50;99.90
60309;DHT22;50313;52.894;6.492;2023-10-31T02:42:40;9.50;99.90
60309;DHT22;50313;52.894;6.492;2023-10-31T02:45:07;9.50;99.90
60309;DHT22;50313;52.894;6.492;2023-10-31T02:47:33;9.50;99.90
60309;DHT22;50313;52.894;6.492;2023-10-31T02:49:59;9.50;99.90
60309;DHT22;50313;52.894;6.492;2023-10-31T02:52:24;9.50;99.90
60309;DHT22;50313;52.894;6.492;2023-10-31T02:54:50;9.60;99.90
60309;DHT22;50313;52.894;6.492;2023-10-31T02:57:16;9.60;99.90
60309;DHT22;50313;52.894;6.492;2023-10-31T02:59:42;9.60;99.90
60309;DHT22;50313;52.894;6.492;2023-10-31T03:02:08;9.60;99.90
60309;DHT22;50313;52.894;6.492;2023-10-31T03:04:34;9.70;99.90
60309;DHT22;50313;52.894;6.492;2023-10-31T03:06:59;9.60;99.90
60309;DHT22;50313;52.894;6.492;2023-10-31T03:09:25;9.60;99.90
60309;DHT22;50313;52.894;6.492;2023-10-31T03:11:51;9.60;99.90
60309;DHT22;50313;52.894;6.492;2023-10-31T03:14:17;9.60;99.90
60309;DHT22;50313;52.894;6.492;2023-10-31T03:16:42;9.60;99.90
60309;DHT22;50313;52.894;6.492;2023-10-31T03:19:08;9.60;99.90
60309;DHT22;50313;52.894;6.492;2023-10-31T03:21:34;9.70;99.90
60309;DHT22;50313;52.894;6.492;2023-10-31T03:24:00;9.60;99.90
60309;DHT22;50313;52.894;6.492;2023-10-31T03:26:25;9.60;99.90
60309;DHT22;50313;52.894;6.492;2023-10-31T03:28:51;9.70;99.90
60309;DHT22;50313;52.894;6.492;2023-10-31T03:31:23;9.70;99.90
60309;DHT22;50313;52.894;6.492;2023-10-31T03:33:48;9.70;99.90
60309;DHT22;50313;52.894;6.492;2023-10-31T03:36:14;9.60;99.90
60309;DHT22;50313;52.894;6.492;2023-10-31T03:38:40;9.70;99.90
60309;DHT22;50313;52.894;6.492;2023-10-31T03:41:06;9.70;99.90
60309;DHT22;50313;52.894;6.492;2023-10-31T03:43:32;9.70;99.90
60309;DHT22;50313;52.894;6.492;2023-10-31T03:45:57;9.70;99.90
60309;DHT22;50313;52.894;6.492;2023-10-31T03:48:23;9.70;99.90
60309;DHT22;50313;52.894;6.492;2023-10-31T03:50:49;9.70;99.90
60309;DHT22;50313;52.894;6.492;2023-10-31T03:53:16;9.70;99.90
60309;DHT22;50313;52.894;6.492;2023-10-31T03:55:41;9.80;99.90
60309;DHT22;50313;52.894;6.492;2023-10-31T03:58:07;9.80;99.90
60309;DHT22;50313;52.894;6.492;2023-10-31T04:00:33;9.80;99.90
60309;DHT22;50313;52.894;6.492;2023-10-31T04:02:58;9.80;99.90
60309;DHT22;50313;52.894;6.492;2023-10-31T04:05:24;9.90;99.90
60309;DHT22;50313;52.894;6.492;2023-10-31T04:07:50;9.80;99.90
60309;DHT22;50313;52.894;6.492;2023-10-31T04:10:17;10.00;99.90
60309;DHT22;50313;52.894;6.492;2023-10-31T04:12:44;9.90;99.90
60309;DHT22;50313;52.894;6.492;2023-10-31T04:15:10;9.90;99.90
60309;DHT22;50313;52.894;6.492;2023-10-31T04:17:36;9.90;99.90
60309;DHT22;50313;52.894;6.492;2023-10-31T04:20:02;9.90;99.90
60309;DHT22;50313;52.894;6.492;2023-10-31T04:22:28;9.90;99.90
60309;DHT22;50313;52.894;6.492;2023-10-31T04:24:54;9.90;99.90
60309;DHT22;50313;52.894;6.492;2023-10-31T04:27:20;9.90;99.90
60309;DHT22;50313;52.894;6.492;2023-10-31T04:29:46;9.90;99.90
60309;DHT22;50313;52.894;6.492;2023-10-31T04:32:12;9.90;99.90
60309;DHT22;50313;52.894;6.492;2023-10-31T04:34:37;9.90;99.90
60309;DHT22;50313;52.894;6.492;2023-10-31T04:37:03;10.00;99.90
60309;DHT22;50313;52.894;6.492;2023-10-31T04:39:29;9.90;99.90
60309;DHT22;50313;52.894;6.492;2023-10-31T04:41:55;9.90;99.90
60309;DHT22;50313;52.894;6.492;2023-10-31T04:44:21;9.80;99.90
60309;DHT22;50313;52.894;6.492;2023-10-31T04:46:47;9.80;99.90
60309;DHT22;50313;52.894;6.492;2023-10-31T04:49:13;9.80;99.90
60309;DHT22;50313;52.894;6.492;2023-10-31T04:51:38;9.80;99.90
60309;DHT22;50313;52.894;6.492;2023-10-31T04:54:05;9.90;99.90
60309;DHT22;50313;52.894;6.492;2023-10-31T04:56:31;9.80;99.90
60309;DHT22;50313;52.894;6.492;2023-10-31T04:58:56;9.80;99.90
60309;DHT22;50313;52.894;6.492;2023-10-31T05:01:22;9.80;99.90
60309;DHT22;50313;52.894;6.492;2023-10-31T05:03:48;9.80;99.90
60309;DHT22;50313;52.894;6.492;2023-10-31T05:06:22;9.80;99.90
60309;DHT22;50313;52.894;6.492;2023-10-31T05:08:48;9.80;99.90
60309;DHT22;50313;52.894;6.492;2023-10-31T05:11:17;9.80;99.90
60309;DHT22;50313;52.894;6.492;2023-10-31T05:13:47;9.80;99.90
60309;DHT22;50313;52.894;6.492;2023-10-31T05:16:13;9.80;99.90
60309;DHT22;50313;52.894;6.492;2023-10-31T05:18:39;9.80;99.90
60309;DHT22;50313;52.894;6.492;2023-10-31T05:21:05;9.80;99.90
60309;DHT22;50313;52.894;6.492;2023-10-31T05:23:30;9.70;99.90
60309;DHT22;50313;52.894;6.492;2023-10-31T05:25:56;9.80;99.90
60309;DHT22;50313;52.894;6.492;2023-10-31T05:28:22;9.70;99.90
60309;DHT22;50313;52.894;6.492;2023-10-31T05:30:49;9.70;99.90
60309;DHT22;50313;52.894;6.492;2023-10-31T05:33:15;9.70;99.90
60309;DHT22;50313;52.894;6.492;2023-10-31T05:35:41;9.80;99.90
60309;DHT22;50313;52.894;6.492;2023-10-31T05:38:07;9.70;99.90
60309;DHT22;50313;52.894;6.492;2023-10-31T05:40:33;9.70;99.90
60309;DHT22;50313;52.894;6.492;2023-10-31T05:43:01;9.80;99.90
60309;DHT22;50313;52.894;6.492;2023-10-31T05:45:28;9.70;99.90
60309;DHT22;50313;52.894;6.492;2023-10-31T05:47:53;9.80;99.90
60309;DHT22;50313;52.894;6.492;2023-10-31T05:50:19;9.70;99.90
60309;DHT22;50313;52.894;6.492;2023-10-31T05:52:45;9.80;99.90
60309;DHT22;50313;52.894;6.492;2023-10-31T05:55:10;9.80;99.90
60309;DHT22;50313;52.894;6.492;2023-10-31T05:57:36;9.80;99.90
60309;DHT22;50313;52.894;6.492;2023-10-31T06:00:02;9.80;99.90
60309;DHT22;50313;52.894;6.492;2023-10-31T06:02:28;9.80;99.90
60309;DHT22;50313;52.894;6.492;2023-10-31T06:04:55;9.80;99.90
60309;DHT22;50313;52.894;6.492;2023-10-31T06:07:21;9.70;99.90
60309;DHT22;50313;52.894;6.492;2023-10-31T06:09:47;9.80;99.90
60309;DHT22;50313;52.894;6.492;2023-10-31T06:12:12;9.70;99.90
60309;DHT22;50313;52.894;6.492;2023-10-31T06:14:38;9.80;99.90
60309;DHT22;50313;52.894;6.492;2023-10-31T06:17:04;9.70;99.90
60309;DHT22;50313;52.894;6.492;2023-10-31T06:19:34;9.70;99.90
60309;DHT22;50313;52.894;6.492;2023-10-31T06:21:59;9.80;99.90
60309;DHT22;50313;52.894;6.492;2023-10-31T06:24:25;9.80;99.90
60309;DHT22;50313;52.894;6.492;2023-10-31T06:26:51;9.80;99.90
60309;DHT22;50313;52.894;6.492;2023-10-31T06:29:17;9.80;99.90
60309;DHT22;50313;52.894;6.492;2023-10-31T06:31:43;9.80;99.90
60309;DHT22;50313;52.894;6.492;2023-10-31T06:34:09;9.80;99.90
60309;DHT22;50313;52.894;6.492;2023-10-31T06:36:35;9.80;99.90
60309;DHT22;50313;52.894;6.492;2023-10-31T06:39:01;9.80;99.90
60309;DHT22;50313;52.894;6.492;2023-10-31T06:41:27;9.80;99.90
60309;DHT22;50313;52.894;6.492;2023-10-31T06:43:53;9.90;99.90
60309;DHT22;50313;52.894;6.492;2023-10-31T06:46:19;9.80;99.90
60309;DHT22;50313;52.894;6.492;2023-10-31T06:48:44;9.80;99.90
60309;DHT22;50313;52.894;6.492;2023-10-31T06:51:11;9.90;99.90
60309;DHT22;50313;52.894;6.492;2023-10-31T06:53:36;9.90;99.90
60309;DHT22;50313;52.894;6.492;2023-10-31T06:56:02;9.90;99.90
60309;DHT22;50313;52.894;6.492;2023-10-31T06:58:28;10.00;99.90
60309;DHT22;50313;52.894;6.492;2023-10-31T07:00:54;10.00;99.90
60309;DHT22;50313;52.894;6.492;2023-10-31T07:03:20;10.00;99.90
60309;DHT22;50313;52.894;6.492;2023-10-31T07:05:46;10.00;99.90
60309;DHT22;50313;52.894;6.492;2023-10-31T07:08:12;10.00;99.90
60309;DHT22;50313;52.894;6.492;2023-10-31T07:10:37;10.10;99.90
60309;DHT22;50313;52.894;6.492;2023-10-31T07:13:03;10.10;99.90
60309;DHT22;50313;52.894;6.492;2023-10-31T07:15:29;10.10;99.90
60309;DHT22;50313;52.894;6.492;2023-10-31T07:17:55;10.10;99.90
60309;DHT22;50313;52.894;6.492;2023-10-31T07:20:21;10.20;99.90
60309;DHT22;50313;52.894;6.492;2023-10-31T07:22:47;10.20;99.90
60309;DHT22;50313;52.894;6.492;2023-10-31T07:25:13;10.30;99.90
60309;DHT22;50313;52.894;6.492;2023-10-31T07:27:38;10.30;99.90
60309;DHT22;50313;52.894;6.492;2023-10-31T07:30:05;10.30;99.90
60309;DHT22;50313;52.894;6.492;2023-10-31T07:32:31;10.40;99.90
60309;DHT22;50313;52.894;6.492;2023-10-31T07:34:58;10.30;99.90
60309;DHT22;50313;52.894;6.492;2023-10-31T07:37:23;10.40;99.90
60309;DHT22;50313;52.894;6.492;2023-10-31T07:39:49;10.40;99.90
60309;DHT22;50313;52.894;6.492;2023-10-31T07:42:16;10.50;99.90
60309;DHT22;50313;52.894;6.492;2023-10-31T07:44:42;10.50;99.90
60309;DHT22;50313;52.894;6.492;2023-10-31T07:47:08;10.50;99.90
60309;DHT22;50313;52.894;6.492;2023-10-31T07:49:33;10.60;99.90
60309;DHT22;50313;52.894;6.492;2023-10-31T07:51:59;10.60;99.90
60309;DHT22;50313;52.894;6.492;2023-10-31T07:54:25;10.60;99.90
60309;DHT22;50313;52.894;6.492;2023-10-31T07:56:51;10.70;99.90
60309;DHT22;50313;52.894;6.492;2023-10-31T07:59:16;10.60;99.90
60309;DHT22;50313;52.894;6.492;2023-10-31T08:01:42;10.70;99.90
60309;DHT22;50313;52.894;6.492;2023-10-31T08:04:08;10.70;99.90
60309;DHT22;50313;52.894;6.492;2023-10-31T08:06:34;10.70;99.90
60309;DHT22;50313;52.894;6.492;2023-10-31T08:09:00;10.80;99.90
60309;DHT22;50313;52.894;6.492;2023-10-31T08:11:25;10.80;99.90
60309;DHT22;50313;52.894;6.492;2023-10-31T08:13:52;10.80;99.90
60309;DHT22;50313;52.894;6.492;2023-10-31T08:16:18;10.80;99.90
60309;DHT22;50313;52.894;6.492;2023-10-31T08:18:45;10.80;99.90
60309;DHT22;50313;52.894;6.492;2023-10-31T08:21:11;10.80;99.90
60309;DHT22;50313;52.894;6.492;2023-10-31T08:23:37;10.80;99.90
60309;DHT22;50313;52.894;6.492;2023-10-31T08:26:03;10.80;99.90
60309;DHT22;50313;52.894;6.492;2023-10-31T08:28:29;10.80;99.90
60309;DHT22;50313;52.894;6.492;2023-10-31T08:30:56;10.80;99.90
60309;DHT22;50313;52.894;6.492;2023-10-31T08:33:22;10.80;99.90
60309;DHT22;50313;52.894;6.492;2023-10-31T08:35:48;10.80;99.90
60309;DHT22;50313;52.894;6.492;2023-10-31T08:38:14;10.80;99.90
60309;DHT22;50313;52.894;6.492;2023-10-31T08:40:41;10.80;99.90
60309;DHT22;50313;52.894;6.492;2023-10-31T08:43:06;10.80;99.90
60309;DHT22;50313;52.894;6.492;2023-10-31T08:45:33;10.80;99.90
60309;DHT22;50313;52.894;6.492;2023-10-31T08:48:00;10.80;99.90
60309;DHT22;50313;52.894;6.492;2023-10-31T08:50:25;10.80;99.90
60309;DHT22;50313;52.894;6.492;2023-10-31T08:52:51;10.80;99.90
60309;DHT22;50313;52.894;6.492;2023-10-31T08:55:18;10.90;99.90
60309;DHT22;50313;52.894;6.492;2023-10-31T08:57:43;10.90;99.90
60309;DHT22;50313;52.894;6.492;2023-10-31T09:00:09;10.90;99.90
60309;DHT22;50313;52.894;6.492;2023-10-31T09:02:35;10.90;99.90
60309;DHT22;50313;52.894;6.492;2023-10-31T09:05:01;11.10;99.90
60309;DHT22;50313;52.894;6.492;2023-10-31T09:07:27;11.10;99.90
60309;DHT22;50313;52.894;6.492;2023-10-31T09:09:53;11.20;99.90
60309;DHT22;50313;52.894;6.492;2023-10-31T09:12:19;11.20;99.90
60309;DHT22;50313;52.894;6.492;2023-10-31T09:14:44;11.30;99.90
60309;DHT22;50313;52.894;6.492;2023-10-31T09:17:11;11.50;99.90
60309;DHT22;50313;52.894;6.492;2023-10-31T09:19:36;11.60;99.90
60309;DHT22;50313;52.894;6.492;2023-10-31T09:22:02;11.80;99.90
60309;DHT22;50313;52.894;6.492;2023-10-31T09:24:28;11.90;99.90
60309;DHT22;50313;52.894;6.492;2023-10-31T09:26:53;11.80;99.90
60309;DHT22;50313;52.894;6.492;2023-10-31T09:29:20;12.00;99.90
60309;DHT22;50313;52.894;6.492;2023-10-31T09:31:46;11.90;99.90
60309;DHT22;50313;52.894;6.492;2023-10-31T09:34:13;11.80;99.90
60309;DHT22;50313;52.894;6.492;2023-10-31T09:36:39;11.80;99.90
60309;DHT22;50313;52.894;6.492;2023-10-31T09:39:05;11.80;99.90
60309;DHT22;50313;52.894;6.492;2023-10-31T09:41:31;11.60;99.90
60309;DHT22;50313;52.894;6.492;2023-10-31T09:44:00;11.60;99.90
60309;DHT22;50313;52.894;6.492;2023-10-31T09:46:28;11.60;99.90
60309;DHT22;50313;52.894;6.492;2023-10-31T09:48:55;11.50;99.90
60309;DHT22;50313;52.894;6.492;2023-10-31T09:51:21;11.40;99.90
60309;DHT22;50313;52.894;6.492;2023-10-31T09:53:47;11.30;99.90
60309;DHT22;50313;52.894;6.492;2023-10-31T09:56:14;11.20;99.90
60309;DHT22;50313;52.894;6.492;2023-10-31T09:58:40;11.20;99.90
60309;DHT22;50313;52.894;6.492;2023-10-31T10:01:07;11.20;99.90
60309;DHT22;50313;52.894;6.492;2023-10-31T10:03:33;11.20;99.90
60309;DHT22;50313;52.894;6.492;2023-10-31T10:05:58;11.20;99.90
60309;DHT22;50313;52.894;6.492;2023-10-31T10:08:24;11.20;99.90
60309;DHT22;50313;52.894;6.492;2023-10-31T10:10:50;11.20;99.90
60309;DHT22;50313;52.894;6.492;2023-10-31T10:13:18;11.10;99.90
60309;DHT22;50313;52.894;6.492;2023-10-31T10:15:48;11.20;99.90
60309;DHT22;50313;52.894;6.492;2023-10-31T10:18:30;11.20;99.90
60309;DHT22;50313;52.894;6.492;2023-10-31T10:21:07;11.20;99.90
60309;DHT22;50313;52.894;6.492;2023-10-31T10:23:33;11.10;99.90
60309;DHT22;50313;52.894;6.492;2023-10-31T10:26:00;11.00;99.90
60309;DHT22;50313;52.894;6.492;2023-10-31T10:28:26;11.00;99.90
60309;DHT22;50313;52.894;6.492;2023-10-31T10:30:53;10.90;99.90
60309;DHT22;50313;52.894;6.492;2023-10-31T10:33:20;10.90;99.90
60309;DHT22;50313;52.894;6.492;2023-10-31T10:35:46;10.90;99.90
60309;DHT22;50313;52.894;6.492;2023-10-31T10:38:14;11.00;99.90
60309;DHT22;50313;52.894;6.492;2023-10-31T10:40:41;11.00;99.90
60309;DHT22;50313;52.894;6.492;2023-10-31T10:43:13;11.10;99.90
60309;DHT22;50313;52.894;6.492;2023-10-31T10:45:43;11.10;99.90
60309;DHT22;50313;52.894;6.492;2023-10-31T10:48:13;11.20;99.90
60309;DHT22;50313;52.894;6.492;2023-10-31T10:50:42;11.30;99.90
60309;DHT22;50313;52.894;6.492;2023-10-31T10:53:25;11.40;99.90
60309;DHT22;50313;52.894;6.492;2023-10-31T10:55:57;11.50;99.90
60309;DHT22;50313;52.894;6.492;2023-10-31T10:58:44;11.60;99.90
60309;DHT22;50313;52.894;6.492;2023-10-31T11:01:10;11.60;99.90
60309;DHT22;50313;52.894;6.492;2023-10-31T11:03:37;11.70;99.90
60309;DHT22;50313;52.894;6.492;2023-10-31T11:06:04;11.70;99.90
60309;DHT22;50313;52.894;6.492;2023-10-31T11:08:32;11.70;99.90
60309;DHT22;50313;52.894;6.492;2023-10-31T11:10:59;11.80;99.90
60309;DHT22;50313;52.894;6.492;2023-10-31T11:13:26;11.90;99.90
60309;DHT22;50313;52.894;6.492;2023-10-31T11:15:59;12.00;99.90
60309;DHT22;50313;52.894;6.492;2023-10-31T11:18:27;11.90;99.90
60309;DHT22;50313;52.894;6.492;2023-10-31T11:20:53;11.90;99.90
60309;DHT22;50313;52.894;6.492;2023-10-31T11:23:19;12.00;99.90
60309;DHT22;50313;52.894;6.492;2023-10-31T11:25:50;12.10;99.90
60309;DHT22;50313;52.894;6.492;2023-10-31T11:28:19;12.00;99.90
60309;DHT22;50313;52.894;6.492;2023-10-31T11:30:49;12.00;99.90
60309;DHT22;50313;52.894;6.492;2023-10-31T11:33:18;11.80;99.90
60309;DHT22;50313;52.894;6.492;2023-10-31T11:35:50;11.80;99.90
60309;DHT22;50313;52.894;6.492;2023-10-31T11:38:16;11.70;99.90
60309;DHT22;50313;52.894;6.492;2023-10-31T11:43:10;11.60;99.90
60309;DHT22;50313;52.894;6.492;2023-10-31T11:45:41;11.60;99.90
60309;DHT22;50313;52.894;6.492;2023-10-31T11:48:15;11.50;99.90
60309;DHT22;50313;52.894;6.492;2023-10-31T11:50:41;11.50;99.90
60309;DHT22;50313;52.894;6.492;2023-10-31T11:53:13;11.50;99.90
60309;DHT22;50313;52.894;6.492;2023-10-31T11:55:41;11.40;99.90
60309;DHT22;50313;52.894;6.492;2023-10-31T12:00:39;11.30;99.90
60309;DHT22;50313;52.894;6.492;2023-10-31T12:03:04;11.30;99.90
60309;DHT22;50313;52.894;6.492;2023-10-31T12:05:30;11.30;99.90
60309;DHT22;50313;52.894;6.492;2023-10-31T12:07:56;11.20;99.90
60309;DHT22;50313;52.894;6.492;2023-10-31T12:10:27;11.20;99.90
60309;DHT22;50313;52.894;6.492;2023-10-31T12:12:56;11.20;99.90
60309;DHT22;50313;52.894;6.492;2023-10-31T12:15:22;11.20;99.90
60309;DHT22;50313;52.894;6.492;2023-10-31T12:17:49;11.20;99.90
60309;DHT22;50313;52.894;6.492;2023-10-31T12:20:15;11.30;99.90
60309;DHT22;50313;52.894;6.492;2023-10-31T12:22:42;11.30;99.90
60309;DHT22;50313;52.894;6.492;2023-10-31T12:25:09;11.20;99.90
60309;DHT22;50313;52.894;6.492;2023-10-31T12:27:45;11.10;99.90
60309;DHT22;50313;52.894;6.492;2023-10-31T12:30:19;10.90;99.90
60309;DHT22;50313;52.894;6.492;2023-10-31T12:32:52;11.00;99.90
60309;DHT22;50313;52.894;6.492;2023-10-31T12:35:21;11.00;99.90
60309;DHT22;50313;52.894;6.492;2023-10-31T12:37:48;11.00;99.90
60309;DHT22;50313;52.894;6.492;2023-10-31T12:40:18;11.00;99.90
60309;DHT22;50313;52.894;6.492;2023-10-31T12:42:45;11.20;99.90
60309;DHT22;50313;52.894;6.492;2023-10-31T12:45:12;11.30;99.90
60309;DHT22;50313;52.894;6.492;2023-10-31T12:47:38;11.40;99.90
60309;DHT22;50313;52.894;6.492;2023-10-31T12:50:07;11.20;99.90
60309;DHT22;50313;52.894;6.492;2023-10-31T12:52:52;11.10;99.90
60309;DHT22;50313;52.894;6.492;2023-10-31T12:55:23;11.20;99.90
60309;DHT22;50313;52.894;6.492;2023-10-31T12:57:51;11.20;99.90
60309;DHT22;50313;52.894;6.492;2023-10-31T13:00:18;11.20;99.90
60309;DHT22;50313;52.894;6.492;2023-10-31T13:03:05;11.10;99.90
60309;DHT22;50313;52.894;6.492;2023-10-31T13:05:32;11.20;99.90
60309;DHT22;50313;52.894;6.492;2023-10-31T13:07:59;11.20;99.90
60309;DHT22;50313;52.894;6.492;2023-10-31T13:10:28;11.30;99.90
60309;DHT22;50313;52.894;6.492;2023-10-31T13:12:54;11.20;99.90
60309;DHT22;50313;52.894;6.492;2023-10-31T13:15:21;11.20;99.90
60309;DHT22;50313;52.894;6.492;2023-10-31T13:17:51;11.20;99.90
60309;DHT22;50313;52.894;6.492;2023-10-31T13:20:21;11.20;99.90
60309;DHT22;50313;52.894;6.492;2023-10-31T13:22:47;11.30;99.90
60309;DHT22;50313;52.894;6.492;2023-10-31T13:25:14;11.50;99.90
60309;DHT22;50313;52.894;6.492;2023-10-31T13:27:41;11.60;99.90
60309;DHT22;50313;52.894;6.492;2023-10-31T13:30:09;11.60;99.90
60309;DHT22;50313;52.894;6.492;2023-10-31T13:32:40;11.70;99.90
60309;DHT22;50313;52.894;6.492;2023-10-31T13:35:07;11.80;99.90
60309;DHT22;50313;52.894;6.492;2023-10-31T13:37:38;12.20;99.90
60309;DHT22;50313;52.894;6.492;2023-10-31T13:40:05;12.70;99.90
60309;DHT22;50313;52.894;6.492;2023-10-31T13:42:34;13.10;99.90
60309;DHT22;50313;52.894;6.492;2023-10-31T13:45:00;13.20;99.90
60309;DHT22;50313;52.894;6.492;2023-10-31T13:47:25;14.10;99.90
60309;DHT22;50313;52.894;6.492;2023-10-31T13:49:51;14.30;99.90
60309;DHT22;50313;52.894;6.492;2023-10-31T13:52:17;14.50;99.90
60309;DHT22;50313;52.894;6.492;2023-10-31T13:54:43;13.80;99.90
60309;DHT22;50313;52.894;6.492;2023-10-31T13:57:09;13.60;99.90
60309;DHT22;50313;52.894;6.492;2023-10-31T13:59:34;13.80;99.90
60309;DHT22;50313;52.894;6.492;2023-10-31T14:02:00;14.50;99.90
60309;DHT22;50313;52.894;6.492;2023-10-31T14:04:26;15.00;99.90
60309;DHT22;50313;52.894;6.492;2023-10-31T14:06:52;15.30;99.90
60309;DHT22;50313;52.894;6.492;2023-10-31T14:09:17;15.60;99.90
60309;DHT22;50313;52.894;6.492;2023-10-31T14:11:43;15.60;1.00
60309;DHT22;50313;52.894;6.492;2023-10-31T14:14:09;16.10;37.00
60309;DHT22;50313;52.894;6.492;2023-10-31T14:16:36;16.50;1.00
60309;DHT22;50313;52.894;6.492;2023-10-31T14:19:04;15.80;99.90
60309;DHT22;50313;52.894;6.492;2023-10-31T14:21:30;15.20;99.90
60309;DHT22;50313;52.894;6.492;2023-10-31T14:23:56;15.10;99.90
60309;DHT22;50313;52.894;6.492;2023-10-31T14:26:22;15.20;99.90
60309;DHT22;50313;52.894;6.492;2023-10-31T14:28:49;15.00;99.90
60309;DHT22;50313;52.894;6.492;2023-10-31T14:31:16;15.70;99.90
60309;DHT22;50313;52.894;6.492;2023-10-31T14:33:42;16.00;1.00
60309;DHT22;50313;52.894;6.492;2023-10-31T14:36:09;16.50;99.90
60309;DHT22;50313;52.894;6.492;2023-10-31T14:38:37;16.40;1.00
60309;DHT22;50313;52.894;6.492;2023-10-31T14:41:03;16.00;99.90
60309;DHT22;50313;52.894;6.492;2023-10-31T14:43:29;15.40;99.90
60309;DHT22;50313;52.894;6.492;2023-10-31T14:45:59;14.80;1.00
60309;DHT22;50313;52.894;6.492;2023-10-31T14:48:24;14.10;14.70
60309;DHT22;50313;52.894;6.492;2023-10-31T14:50:50;13.60;99.90
60309;DHT22;50313;52.894;6.492;2023-10-31T14:53:17;13.20;99.90
60309;DHT22;50313;52.894;6.492;2023-10-31T14:55:45;12.70;99.90
60309;DHT22;50313;52.894;6.492;2023-10-31T14:58:11;12.40;99.90
60309;DHT22;50313;52.894;6.492;2023-10-31T15:00:37;12.10;99.90
60309;DHT22;50313;52.894;6.492;2023-10-31T15:03:03;12.00;99.90
60309;DHT22;50313;52.894;6.492;2023-10-31T15:05:30;11.70;99.90
60309;DHT22;50313;52.894;6.492;2023-10-31T15:07:56;11.60;99.90
60309;DHT22;50313;52.894;6.492;2023-10-31T15:10:25;11.50;99.90
60309;DHT22;50313;52.894;6.492;2023-10-31T15:12:53;11.40;99.90
60309;DHT22;50313;52.894;6.492;2023-10-31T15:15:19;11.30;99.90
60309;DHT22;50313;52.894;6.492;2023-10-31T15:17:45;11.30;99.90
60309;DHT22;50313;52.894;6.492;2023-10-31T15:20:13;11.20;99.90
60309;DHT22;50313;52.894;6.492;2023-10-31T15:22:39;11.10;99.90
60309;DHT22;50313;52.894;6.492;2023-10-31T15:25:06;11.10;99.90
60309;DHT22;50313;52.894;6.492;2023-10-31T15:27:32;11.00;99.90
60309;DHT22;50313;52.894;6.492;2023-10-31T15:29:57;11.00;99.90
60309;DHT22;50313;52.894;6.492;2023-10-31T15:32:24;11.00;99.90
60309;DHT22;50313;52.894;6.492;2023-10-31T15:34:50;10.90;99.90
60309;DHT22;50313;52.894;6.492;2023-10-31T15:37:23;10.90;99.90
60309;DHT22;50313;52.894;6.492;2023-10-31T15:39:49;10.80;99.90